Time;durP1;ratioP1;P1;durP2;ratioP2;P2;SDS_P1;SDS_P2;PMS_P1;PMS_P2;Temp;Humidity;BMP_temperature;BMP_pressure;BME280_temperature;BME280_humidity;BME280_pressure;Samples;Min_cycle;Max_cycle;Signal;HPM_P1;HPM_P2
2021/04/09 00:00:48;;;;;;;3.90;3.60;;;;;;;1.84;67.28;100700.16;4984413;28;20211;-73
2021/04/09 00:03:14;;;;;;;4.90;4.20;;;;;;;1.82;67.17;100703.53;4982713;28;20228;-73
2021/04/09 00:05:41;;;;;;;4.57;3.77;;;;;;;1.73;68.32;100694.78;4983993;28;20232;-72
2021/04/09 00:08:07;;;;;;;3.90;3.60;;;;;;;1.74;68.10;100700.78;4984072;28;20930;-73
2021/04/09 00:10:33;;;;;;;9.27;4.20;;;;;;;1.67;67.32;100691.22;4984426;28;20208;-73
2021/04/09 00:12:59;;;;;;;5.33;3.97;;;;;;;1.69;66.88;100695.56;4983132;28;20215;-72
2021/04/09 00:15:25;;;;;;;4.53;4.03;;;;;;;1.66;67.51;100686.91;4984640;28;20242;-73
2021/04/09 00:17:52;;;;;;;4.40;4.00;;;;;;;1.61;66.42;100686.81;4983674;28;20270;-73
2021/04/09 00:20:20;;;;;;;4.97;4.47;;;;;;;1.67;67.41;100681.81;4983877;28;20213;-73
2021/04/09 00:22:47;;;;;;;4.30;3.90;;;;;;;1.67;66.93;100678.38;4983677;28;20228;-72
2021/04/09 00:25:15;;;;;;;4.67;4.00;;;;;;;1.63;67.66;100679.13;4983642;28;20229;-73
2021/04/09 00:27:41;;;;;;;4.37;4.07;;;;;;;1.56;68.69;100668.69;4983103;28;20214;-73
2021/04/09 00:30:10;;;;;;;5.17;4.30;;;;;;;1.59;67.67;100663.63;4984014;28;20208;-73
2021/04/09 00:32:36;;;;;;;4.97;4.30;;;;;;;1.48;67.41;100659.94;4983858;28;20212;-73
2021/04/09 00:35:03;;;;;;;4.93;4.53;;;;;;;1.54;66.47;100659.22;4983687;28;20234;-72
2021/04/09 00:37:29;;;;;;;6.90;5.17;;;;;;;1.59;66.52;100657.63;4982914;28;20238;-72
2021/04/09 00:39:55;;;;;;;5.37;4.87;;;;;;;1.66;66.60;100661.19;4984398;28;20204;-73
2021/04/09 00:42:22;;;;;;;4.97;4.47;;;;;;;1.66;66.68;100654.31;4987467;28;20262;-73
2021/04/09 00:44:49;;;;;;;5.43;4.93;;;;;;;1.74;66.07;100646.75;4988108;28;20231;-72
2021/04/09 00:47:15;;;;;;;4.97;4.57;;;;;;;1.73;67.13;100642.47;4987265;28;20210;-71
2021/04/09 00:49:41;;;;;;;6.10;4.80;;;;;;;1.67;66.18;100635.50;4988077;28;20211;-73
2021/04/09 00:52:08;;;;;;;5.17;4.67;;;;;;;1.72;65.10;100631.28;4987579;28;20204;-72
2021/04/09 00:54:35;;;;;;;4.93;4.30;;;;;;;1.66;64.39;100635.44;4987036;28;20810;-72
2021/04/09 00:57:02;;;;;;;6.37;5.53;;;;;;;1.82;65.79;100628.91;4987301;28;20231;-73
2021/04/09 00:59:30;;;;;;;4.67;4.27;;;;;;;1.89;64.21;100623.06;4987238;28;20235;-72
2021/04/09 01:01:56;;;;;;;7.63;5.30;;;;;;;1.97;63.72;100612.03;4986522;28;20207;-72
2021/04/09 01:04:22;;;;;;;5.50;5.00;;;;;;;2.00;64.89;100611.22;4986937;28;20821;-73
2021/04/09 01:06:49;;;;;;;5.80;5.17;;;;;;;2.03;63.53;100613.88;4987227;28;20211;-74
2021/04/09 01:09:15;;;;;;;5.10;4.60;;;;;;;2.08;63.73;100612.25;4987786;28;20242;-72
2021/04/09 01:11:41;;;;;;;7.93;5.30;;;;;;;1.98;65.43;100605.19;4987344;28;20223;-71
2021/04/09 01:14:08;;;;;;;7.07;4.90;;;;;;;1.99;64.51;100606.94;4986854;28;20227;-72
2021/04/09 01:16:43;;;;;;;7.13;5.50;;;;;;;2.03;64.45;100607.88;4987730;28;20211;-73
2021/04/09 01:19:30;;;;;;;5.87;4.97;;;;;;;2.00;65.57;100598.34;4986937;28;20274;-72
2021/04/09 01:22:01;;;;;;;5.40;4.87;;;;;;;1.90;65.71;100591.31;4987028;28;20255;-72
2021/04/09 01:24:53;;;;;;;5.60;4.67;;;;;;;1.88;67.24;100591.28;4986331;28;20307;-73
2021/04/09 01:28:01;;;;;;;4.90;4.47;;;;;;;1.74;66.50;100582.44;4986802;28;20199;-73
2021/04/09 01:30:52;;;;;;;6.17;5.57;;;;;;;1.74;67.67;100582.44;4951266;28;20226;-73
2021/04/09 01:33:22;;;;;;;5.10;4.70;;;;;;;1.65;68.32;100580.56;4986475;28;20203;-73
2021/04/09 01:35:52;;;;;;;6.20;5.20;;;;;;;1.54;68.57;100567.47;4986189;28;20744;-73
2021/04/09 01:38:22;;;;;;;5.80;5.20;;;;;;;1.54;68.45;100569.19;4986572;28;20713;-72
2021/04/09 01:40:49;;;;;;;6.50;5.90;;;;;;;1.68;66.89;100572.03;4987288;28;20212;-73
2021/04/09 01:43:19;;;;;;;6.67;5.03;;;;;;;1.72;67.47;100560.94;4987211;28;20575;-72
2021/04/09 01:45:45;;;;;;;8.50;5.80;;;;;;;1.76;66.75;100570.44;4988242;28;20231;-72
2021/04/09 01:48:12;;;;;;;7.10;5.70;;;;;;;1.86;66.94;100563.78;4986918;28;20195;-72
2021/04/09 01:50:40;;;;;;;8.17;5.30;;;;;;;1.93;65.47;100552.78;4987381;28;20211;-72
2021/04/09 01:53:09;;;;;;;5.87;5.33;;;;;;;2.03;65.71;100552.09;4984468;28;20208;-72
2021/04/09 01:55:40;;;;;;;5.40;4.90;;;;;;;2.11;65.34;100554.78;4986549;28;20235;-74
2021/04/09 01:58:10;;;;;;;7.23;4.90;;;;;;;2.16;63.92;100545.41;4986207;28;21302;-72
2021/04/09 02:00:36;;;;;;;7.90;5.17;;;;;;;2.24;64.75;100541.28;4986658;28;20204;-73
2021/04/09 02:03:04;;;;;;;5.57;5.07;;;;;;;2.35;63.22;100534.59;4985546;28;20212;-73
2021/04/09 02:05:31;;;;;;;6.53;5.87;;;;;;;2.38;63.65;100521.78;4986283;28;20234;-72
2021/04/09 02:07:59;;;;;;;6.53;5.17;;;;;;;2.46;63.44;100527.03;4986487;28;20207;-73
2021/04/09 02:10:27;;;;;;;5.53;5.07;;;;;;;2.45;66.00;100512.41;4986327;28;20227;-73
2021/04/09 02:12:54;;;;;;;5.23;4.73;;;;;;;2.50;63.73;100507.34;4985313;28;20215;-73
2021/04/09 02:15:22;;;;;;;5.60;5.13;;;;;;;2.58;62.77;100510.91;4986826;28;20272;-72
2021/04/09 02:17:48;;;;;;;6.03;5.10;;;;;;;2.63;63.45;100516.97;4985933;28;20631;-71
2021/04/09 02:20:16;;;;;;;5.70;5.10;;;;;;;2.69;64.60;100509.34;4985624;28;20200;-73
2021/04/09 02:22:43;;;;;;;5.63;5.00;;;;;;;2.66;64.72;100509.31;4984769;28;20212;-72
2021/04/09 02:25:13;;;;;;;6.37;5.30;;;;;;;2.72;64.06;100501.66;4986118;28;20235;-72
2021/04/09 02:27:39;;;;;;;6.43;5.17;;;;;;;2.66;64.70;100504.16;4986252;28;20410;-73
2021/04/09 02:30:07;;;;;;;6.07;4.77;;;;;;;2.67;63.93;100498.13;4985538;28;20206;-73
2021/04/09 02:32:32;;;;;;;7.40;5.30;;;;;;;2.64;63.53;100502.41;4985191;28;20219;-73
2021/04/09 02:34:58;;;;;;;5.37;4.87;;;;;;;2.69;63.68;100491.28;4985424;28;20872;-72
2021/04/09 02:37:25;;;;;;;6.47;5.17;;;;;;;2.71;64.81;100494.75;4985133;28;20232;-73
2021/04/09 02:39:55;;;;;;;5.33;4.87;;;;;;;2.73;64.75;100477.59;4985965;28;20207;-72
2021/04/09 02:42:23;;;;;;;5.70;5.20;;;;;;;2.66;66.26;100478.38;4985637;28;20230;-72
2021/04/09 02:44:50;;;;;;;5.50;5.00;;;;;;;2.64;67.07;100474.91;4985283;28;21030;-73
2021/04/09 02:47:20;;;;;;;5.60;5.10;;;;;;;2.66;65.73;100470.66;4984978;28;20569;-72
2021/04/09 02:49:49;;;;;;;6.30;5.20;;;;;;;2.68;64.62;100473.25;4986086;28;20214;-72
2021/04/09 02:52:18;;;;;;;5.37;4.90;;;;;;;2.63;65.03;100469.72;4985459;28;20210;-72
2021/04/09 02:54:49;;;;;;;6.37;5.43;;;;;;;2.63;65.10;100465.44;4985088;28;20228;-74
2021/04/09 02:57:16;;;;;;;6.13;4.80;;;;;;;2.63;65.69;100469.72;4985161;28;20706;-72
2021/04/09 02:59:44;;;;;;;6.27;5.03;;;;;;;2.53;66.46;100463.59;4985396;28;20218;-73
2021/04/09 03:02:12;;;;;;;8.27;5.13;;;;;;;2.49;66.90;100461.81;4985226;28;20293;-72
2021/04/09 03:04:40;;;;;;;5.57;5.00;;;;;;;2.39;66.58;100459.09;4985040;28;20289;-73
2021/04/09 03:07:06;;;;;;;5.17;4.87;;;;;;;2.41;66.63;100456.53;4984720;28;20212;-73
2021/04/09 03:09:32;;;;;;;6.13;5.53;;;;;;;2.48;65.64;100450.66;4985367;28;20218;-73
2021/04/09 03:11:58;;;;;;;6.27;5.00;;;;;;;2.48;66.92;100454.91;4984672;28;20223;-72
2021/04/09 03:14:25;;;;;;;6.10;5.30;;;;;;;2.52;64.75;100439.53;4985019;28;20237;-72
2021/04/09 03:17:00;;;;;;;6.43;5.83;;;;;;;2.53;64.97;100433.53;4985540;28;20211;-74
2021/04/09 03:19:26;;;;;;;5.53;4.97;;;;;;;2.52;65.91;100430.94;4984637;28;20237;-72
2021/04/09 03:21:53;;;;;;;5.73;5.13;;;;;;;2.50;65.42;100428.34;4984806;28;20212;-72
2021/04/09 03:24:19;;;;;;;5.70;5.17;;;;;;;2.54;63.67;100426.69;4984183;28;20227;-72
2021/04/09 03:26:45;;;;;;;6.30;5.70;;;;;;;2.57;63.24;100421.56;4985235;28;20299;-72
2021/04/09 03:29:11;;;;;;;6.23;5.53;;;;;;;2.64;62.89;100419.94;4984755;28;20244;-72
2021/04/09 03:31:37;;;;;;;5.07;4.63;;;;;;;2.71;63.95;100424.31;4984862;28;20217;-73
2021/04/09 03:34:04;;;;;;;7.33;5.40;;;;;;;2.61;66.53;100431.06;4983994;28;20212;-73
2021/04/09 03:36:30;;;;;;;5.67;5.13;;;;;;;2.57;61.92;100416.41;4984998;28;20212;-72
2021/04/09 03:38:56;;;;;;;6.73;6.00;;;;;;;2.59;63.05;100409.56;4984519;28;20223;-73
2021/04/09 03:41:22;;;;;;;10.43;5.53;;;;;;;2.60;63.00;100413.88;4984391;28;20295;-73
2021/04/09 03:43:48;;;;;;;5.53;5.03;;;;;;;2.53;64.43;100415.50;4984272;28;20709;-73
2021/04/09 03:46:14;;;;;;;5.60;5.10;;;;;;;2.55;65.17;100406.06;4984692;28;21163;-73
2021/04/09 03:48:40;;;;;;;6.20;5.60;;;;;;;2.59;64.59;100400.09;4984731;28;20211;-73
2021/04/09 03:51:07;;;;;;;5.77;4.90;;;;;;;2.57;65.70;100400.94;4984734;28;20323;-72
2021/04/09 03:53:33;;;;;;;7.30;5.70;;;;;;;2.57;64.18;100400.94;4983248;28;20218;-72
2021/04/09 03:55:59;;;;;;;7.57;5.90;;;;;;;2.61;65.30;100396.69;4985009;28;20681;-72
2021/04/09 03:58:25;;;;;;;6.53;5.60;;;;;;;2.56;64.59;100392.34;4983837;28;20262;-72
2021/04/09 04:00:51;;;;;;;9.53;6.20;;;;;;;2.64;64.23;100386.44;4984667;28;20216;-72
2021/04/09 04:03:17;;;;;;;6.27;5.77;;;;;;;2.69;63.20;100390.78;4983480;28;20209;-73
2021/04/09 04:05:43;;;;;;;6.30;5.70;;;;;;;2.79;61.86;100391.75;4984022;28;20233;-72
2021/04/09 04:08:09;;;;;;;11.27;5.77;;;;;;;2.95;60.47;100387.66;4983944;28;20736;-73
2021/04/09 04:10:35;;;;;;;5.97;5.37;;;;;;;3.00;61.02;100383.41;4984381;28;20215;-73
2021/04/09 04:13:01;;;;;;;9.87;5.87;;;;;;;3.02;61.44;100381.72;4983324;28;20327;-71
2021/04/09 04:15:27;;;;;;;6.17;5.57;;;;;;;3.02;61.30;100375.72;4984125;28;20596;-73
2021/04/09 04:17:53;;;;;;;6.93;6.27;;;;;;;2.94;62.63;100380.78;4983249;28;20340;-72
2021/04/09 04:20:19;;;;;;;6.00;5.50;;;;;;;2.94;61.85;100367.88;4984855;28;20294;-73
2021/04/09 04:22:45;;;;;;;7.77;5.80;;;;;;;2.95;62.69;100372.19;4983090;28;20218;-73
2021/04/09 04:25:12;;;;;;;6.73;5.97;;;;;;;2.96;60.79;100373.91;4983864;28;20227;-72
2021/04/09 04:27:38;;;;;;;5.70;5.20;;;;;;;2.96;61.77;100369.63;4984015;28;20211;-72
2021/04/09 04:30:05;;;;;;;6.30;5.70;;;;;;;3.01;62.21;100367.09;4984027;28;20208;-73
2021/04/09 04:32:31;;;;;;;6.57;5.40;;;;;;;2.98;62.06;100364.50;4983580;28;20218;-72
2021/04/09 04:34:57;;;;;;;7.80;5.70;;;;;;;2.93;63.20;100366.13;4984073;28;20227;-72
2021/04/09 04:37:23;;;;;;;6.13;5.53;;;;;;;2.89;62.72;100360.09;4983700;28;20311;-72
2021/04/09 04:39:49;;;;;;;7.50;5.90;;;;;;;2.81;62.39;100353.97;4983704;28;20207;-73
2021/04/09 04:42:16;;;;;;;5.93;5.43;;;;;;;2.86;62.47;100351.47;4983886;28;20225;-73
2021/04/09 04:44:42;;;;;;;6.13;5.50;;;;;;;2.85;63.45;100354.88;4983769;28;20225;-73
2021/04/09 04:47:08;;;;;;;6.67;5.97;;;;;;;2.90;62.44;100346.34;4983361;28;20576;-74
2021/04/09 04:49:34;;;;;;;8.70;5.97;;;;;;;2.98;62.57;100349.03;4984146;28;20215;-73
2021/04/09 04:52:00;;;;;;;7.23;5.90;;;;;;;2.98;63.12;100344.72;4983280;28;20243;-74
2021/04/09 04:54:26;;;;;;;6.10;5.60;;;;;;;3.02;62.15;100345.63;4982999;28;20758;-74
2021/04/09 04:56:52;;;;;;;6.20;5.60;;;;;;;3.05;61.43;100350.78;4983684;28;20219;-72
2021/04/09 04:59:19;;;;;;;6.30;5.70;;;;;;;3.09;62.62;100352.59;4983575;28;20716;-73
2021/04/09 05:01:45;;;;;;;5.80;5.33;;;;;;;3.11;62.94;100361.19;4983682;28;20211;-74
2021/04/09 05:04:11;;;;;;;5.80;5.20;;;;;;;3.10;61.74;100354.28;4983173;28;20266;-73
2021/04/09 05:06:37;;;;;;;6.40;5.80;;;;;;;3.14;63.22;100344.88;4984011;28;20246;-73
2021/04/09 05:09:03;;;;;;;6.17;5.57;;;;;;;3.12;62.49;100347.44;4983042;28;20211;-73
2021/04/09 05:11:29;;;;;;;6.70;6.10;;;;;;;3.14;61.99;100347.47;4983263;28;20216;-73
2021/04/09 05:13:55;;;;;;;6.80;6.13;;;;;;;3.16;61.96;100348.34;4983358;28;20293;-73
2021/04/09 05:16:22;;;;;;;6.30;5.70;;;;;;;3.20;62.72;100344.09;4983190;28;20717;-73
2021/04/09 05:18:47;;;;;;;7.90;6.27;;;;;;;3.22;63.36;100342.38;4983536;28;21106;-72
2021/04/09 05:21:13;;;;;;;8.33;6.60;;;;;;;3.23;63.24;100344.09;4983981;28;20218;-73
2021/04/09 05:23:39;;;;;;;6.50;5.93;;;;;;;3.22;63.07;100343.25;4982475;28;20226;-73
2021/04/09 05:26:06;;;;;;;6.93;5.67;;;;;;;3.29;62.31;100349.31;4984208;28;20274;-73
2021/04/09 05:28:32;;;;;;;6.87;6.17;;;;;;;3.32;62.02;100347.63;4984885;28;20278;-73
2021/04/09 05:30:57;;;;;;;5.50;5.10;;;;;;;3.34;62.83;100347.66;4987156;28;20206;-73
2021/04/09 05:33:25;;;;;;;9.37;6.10;;;;;;;3.44;62.23;100341.72;4986576;28;20204;-72
2021/04/09 05:35:51;;;;;;;6.70;6.00;;;;;;;3.49;61.52;100346.91;4986782;28;20235;-73
2021/04/09 05:38:17;;;;;;;7.63;6.33;;;;;;;3.55;60.98;100344.41;4986130;28;20347;-73
2021/04/09 05:40:43;;;;;;;6.63;5.77;;;;;;;3.61;60.48;100338.38;4986944;28;20709;-72
2021/04/09 05:43:09;;;;;;;9.27;5.77;;;;;;;3.68;60.48;100338.47;4986327;28;20807;-73
2021/04/09 05:45:35;;;;;;;6.33;5.73;;;;;;;3.74;60.35;100351.41;4986994;28;20248;-72
2021/04/09 05:48:04;;;;;;;6.97;6.23;;;;;;;3.82;60.76;100338.56;4986211;28;20218;-73
2021/04/09 05:50:32;;;;;;;6.10;5.60;;;;;;;3.88;60.09;100337.75;4986636;28;20211;-74
2021/04/09 05:52:58;;;;;;;6.47;5.80;;;;;;;3.92;60.17;100334.31;4985319;28;20218;-72
2021/04/09 05:55:24;;;;;;;6.93;6.13;;;;;;;3.98;59.75;100343.00;4987020;28;20243;-72
2021/04/09 05:57:50;;;;;;;7.70;6.10;;;;;;;4.03;59.38;100344.72;4986381;28;20240;-73
2021/04/09 06:00:17;;;;;;;6.60;5.93;;;;;;;4.08;59.75;100341.28;4986269;28;21015;-73
2021/04/09 06:02:44;;;;;;;5.93;5.43;;;;;;;4.14;59.91;100336.19;4986028;28;20277;-72
2021/04/09 06:05:10;;;;;;;6.77;6.17;;;;;;;4.18;59.93;100331.88;4986723;28;20230;-73
2021/04/09 06:07:37;;;;;;;6.40;5.90;;;;;;;4.24;59.54;100325.88;4987800;28;20207;-73
2021/04/09 06:10:04;;;;;;;6.43;5.93;;;;;;;4.24;59.54;100329.34;4987884;28;20208;-72
2021/04/09 06:12:30;;;;;;;5.80;5.30;;;;;;;4.23;59.63;100322.44;4986263;28;20218;-71
2021/04/09 06:14:56;;;;;;;7.60;5.90;;;;;;;4.28;59.46;100330.22;4985574;28;20604;-73
2021/04/09 06:17:22;;;;;;;5.73;5.23;;;;;;;4.35;60.01;100319.91;4986003;28;20211;-72
2021/04/09 06:19:48;;;;;;;6.33;5.73;;;;;;;4.40;59.15;100319.06;4986541;28;21105;-73
2021/04/09 06:22:15;;;;;;;6.27;5.70;;;;;;;4.47;59.84;100320.84;4985232;28;20257;-73
2021/04/09 06:24:41;;;;;;;7.93;6.23;;;;;;;4.54;59.80;100314.84;4986276;28;20230;-76
2021/04/09 06:27:09;;;;;;;6.50;5.97;;;;;;;4.61;59.44;100307.97;4985262;28;20618;-74
2021/04/09 06:29:35;;;;;;;8.33;5.80;;;;;;;4.70;59.09;100315.75;4986207;28;20221;-74
2021/04/09 06:32:01;;;;;;;6.43;5.83;;;;;;;4.73;58.47;100315.75;4985645;28;21435;-74
2021/04/09 06:34:27;;;;;;;6.43;5.83;;;;;;;4.80;60.82;100324.38;4985603;28;20332;-75
2021/04/09 06:36:53;;;;;;;6.50;5.80;;;;;;;4.82;58.99;100325.28;4985607;28;20214;-74
2021/04/09 06:39:19;;;;;;;7.07;6.47;;;;;;;4.85;59.31;100326.13;4984920;28;20237;-75
2021/04/09 06:41:45;;;;;;;7.30;6.60;;;;;;;4.86;58.44;100327.00;4985875;28;20587;-73
2021/04/09 06:44:12;;;;;;;7.13;6.37;;;;;;;4.93;58.87;100324.41;4985490;28;20229;-74
2021/04/09 06:46:39;;;;;;;6.90;6.30;;;;;;;4.97;58.81;100322.69;4985829;28;20211;-74
2021/04/09 06:49:06;;;;;;;6.47;5.87;;;;;;;5.03;58.88;100327.88;4985424;28;20213;-74
2021/04/09 06:51:33;;;;;;;6.73;6.13;;;;;;;5.06;57.94;100320.13;4985137;28;20217;-73
2021/04/09 06:54:02;;;;;;;7.40;5.87;;;;;;;5.12;57.75;100321.88;4984689;28;20627;-74
2021/04/09 06:56:29;;;;;;;5.63;5.13;;;;;;;5.10;57.35;100326.19;4986059;28;20205;-74
2021/04/09 06:58:56;;;;;;;6.67;6.00;;;;;;;5.18;57.76;100334.81;4984492;28;20232;-75
2021/04/09 07:01:24;;;;;;;7.93;6.60;;;;;;;5.16;57.70;100329.63;4983858;28;20223;-75
2021/04/09 07:03:50;;;;;;;9.77;5.80;;;;;;;5.26;57.66;100325.34;4983694;28;20217;-74
2021/04/09 07:06:16;;;;;;;6.43;5.60;;;;;;;5.37;57.60;100327.91;4985347;28;20241;-74
2021/04/09 07:08:42;;;;;;;6.47;5.93;;;;;;;5.45;57.87;100321.03;4985056;28;20206;-76
2021/04/09 07:11:09;;;;;;;5.93;5.43;;;;;;;5.59;57.20;100318.47;4986889;28;20218;-74
2021/04/09 07:13:46;;;;;;;7.57;5.93;;;;;;;5.68;56.59;100314.97;4982230;28;20225;-76
2021/04/09 07:16:13;;;;;;;7.47;5.93;;;;;;;5.74;56.37;100307.19;4984349;28;20206;-76
2021/04/09 07:18:47;;;;;;;6.90;6.10;;;;;;;5.84;57.34;100308.06;4984562;28;20229;-74
2021/04/09 07:21:20;;;;;;;5.83;5.30;;;;;;;5.83;56.04;100303.72;4984971;28;20316;-75
2021/04/09 07:23:46;;;;;;;6.83;6.23;;;;;;;5.87;56.54;100303.75;4983878;28;20218;-76
2021/04/09 07:26:11;;;;;;;6.77;6.13;;;;;;;6.00;56.93;100303.72;4984377;28;20213;-75
2021/04/09 07:28:37;;;;;;;8.63;5.97;;;;;;;6.01;55.87;100305.47;4983665;28;20289;-74
2021/04/09 07:31:08;;;;;;;7.23;6.07;;;;;;;6.04;56.33;100302.84;4984249;28;20740;-75
2021/04/09 07:33:53;;;;;;;7.63;6.53;;;;;;;6.11;55.98;100299.41;4983616;28;20549;-74
2021/04/09 07:36:19;;;;;;;7.50;6.33;;;;;;;6.16;56.48;100295.03;4984609;28;20265;-75
2021/04/09 07:38:51;;;;;;;6.80;6.13;;;;;;;6.24;55.71;100302.78;4984163;28;20237;-75
2021/04/09 07:41:18;;;;;;;7.87;6.50;;;;;;;6.28;56.04;100295.03;4983967;28;20203;-75
2021/04/09 07:43:45;;;;;;;7.23;6.53;;;;;;;6.39;55.72;100292.38;4984043;28;20217;-74
2021/04/09 07:46:19;;;;;;;6.93;6.33;;;;;;;6.50;55.88;100300.09;4983797;28;20226;-74
2021/04/09 07:48:49;;;;;;;7.40;6.23;;;;;;;6.51;56.32;100294.06;4983753;28;20202;-75
2021/04/09 07:51:19;;;;;;;7.53;6.83;;;;;;;6.51;54.77;100291.47;4983183;28;20238;-75
2021/04/09 07:53:47;;;;;;;7.87;7.13;;;;;;;6.58;55.19;100287.97;4983882;28;20226;-74
2021/04/09 07:56:15;;;;;;;7.07;6.37;;;;;;;6.67;54.79;100284.47;4982978;28;20306;-74
2021/04/09 07:58:42;;;;;;;7.80;7.10;;;;;;;6.71;56.19;100292.22;4981700;28;21113;-74
2021/04/09 08:01:19;;;;;;;7.47;6.77;;;;;;;6.74;54.48;100287.03;4983848;28;20210;-75
2021/04/09 08:03:45;;;;;;;8.27;7.47;;;;;;;6.73;55.21;100287.88;4982670;28;20710;-74
2021/04/09 08:06:14;;;;;;;9.30;8.50;;;;;;;6.82;54.81;100294.75;4983114;28;20210;-74
2021/04/09 08:08:55;;;;;;;8.43;7.60;;;;;;;6.77;54.30;100283.53;4982589;28;20211;-74
2021/04/09 08:11:26;;;;;;;8.77;7.87;;;;;;;6.90;55.74;100294.72;4983202;28;20199;-75
2021/04/09 08:14:01;;;;;;;8.73;8.00;;;;;;;7.02;56.33;100288.59;4982767;28;20212;-75
2021/04/09 08:16:28;;;;;;;8.47;7.67;;;;;;;7.10;54.82;100285.06;4983541;28;20214;-75
2021/04/09 08:18:57;;;;;;;7.63;7.00;;;;;;;7.20;54.08;100285.84;4982862;28;20230;-74
2021/04/09 08:21:27;;;;;;;9.10;8.20;;;;;;;7.26;54.52;100282.34;4982983;28;20222;-75
2021/04/09 08:23:55;;;;;;;8.73;8.03;;;;;;;7.36;54.34;100289.19;4983273;28;20207;-74
2021/04/09 08:26:21;;;;;;;9.47;8.13;;;;;;;7.44;55.28;100289.97;4983622;28;20222;-75
2021/04/09 08:28:48;;;;;;;9.27;8.13;;;;;;;7.51;55.44;100289.06;4983697;28;20233;-73
2021/04/09 08:31:14;;;;;;;8.93;7.80;;;;;;;7.49;54.22;100285.63;4984674;28;20211;-75
2021/04/09 08:33:42;;;;;;;10.23;7.87;;;;;;;7.52;54.25;100272.59;4983154;28;20221;-74
2021/04/09 08:36:09;;;;;;;10.73;8.70;;;;;;;7.64;54.21;100274.22;4984143;28;20230;-73
2021/04/09 08:38:36;;;;;;;9.80;7.97;;;;;;;7.74;56.24;100273.25;4983465;28;20238;-74
2021/04/09 08:41:02;;;;;;;9.53;8.17;;;;;;;7.88;55.98;100264.44;4984442;28;20204;-75
2021/04/09 08:43:29;;;;;;;8.30;7.50;;;;;;;7.92;53.00;100271.34;4983041;28;20211;-75
2021/04/09 08:45:55;;;;;;;8.67;7.77;;;;;;;7.89;52.32;100271.38;4983834;28;20230;-74
2021/04/09 08:48:22;;;;;;;8.73;7.97;;;;;;;7.94;52.30;100265.22;4983603;28;20389;-75
2021/04/09 08:50:49;;;;;;;10.00;7.43;;;;;;;8.02;53.49;100270.34;4984300;28;20222;-75
2021/04/09 08:53:23;;;;;;;9.43;8.53;;;;;;;8.00;53.25;100268.66;4981915;28;20207;-75
2021/04/09 08:55:50;;;;;;;10.20;9.30;;;;;;;8.10;54.78;100254.66;4983616;28;20237;-74
2021/04/09 08:58:17;;;;;;;10.13;8.97;;;;;;;8.25;53.62;100262.28;4983141;28;20363;-75
2021/04/09 09:00:44;;;;;;;9.97;9.07;;;;;;;8.19;53.06;100253.72;4983836;28;20222;-75
2021/04/09 09:03:22;;;;;;;8.97;7.77;;;;;;;8.16;52.54;100265.84;4984919;28;20211;-75
2021/04/09 09:05:57;;;;;;;10.33;8.03;;;;;;;8.25;54.36;100259.69;4987511;28;20231;-74
2021/04/09 09:08:44;;;;;;;9.20;8.40;;;;;;;8.41;53.97;100262.09;4987247;28;20265;-75
2021/04/09 09:11:12;;;;;;;9.10;8.10;;;;;;;8.61;55.00;100260.13;4986996;28;20215;-75
2021/04/09 09:13:41;;;;;;;9.23;8.43;;;;;;;8.63;52.87;100265.31;4987258;28;20700;-74
2021/04/09 09:16:15;;;;;;;8.70;7.90;;;;;;;8.54;52.31;100264.56;4989642;28;20318;-75
2021/04/09 09:18:56;;;;;;;8.23;7.43;;;;;;;8.63;52.33;100263.56;5050207;22;20269;-80
2021/04/09 09:21:31;;;;;;;9.33;8.53;;;;;;;8.83;53.64;100265.03;5056653;28;20221;-78
2021/04/09 09:23:59;;;;;;;8.77;8.07;;;;;;;8.94;52.44;100263.13;5034843;28;20197;-78
2021/04/09 09:26:36;;;;;;;8.90;8.10;;;;;;;8.90;51.78;100254.50;5047688;28;20629;-79
2021/04/09 09:29:13;;;;;;;9.27;8.33;;;;;;;8.99;52.54;100250.03;5025091;28;20858;-79
2021/04/09 09:31:41;;;;;;;8.87;8.17;;;;;;;9.10;52.21;100262.00;5013738;28;20215;-79
2021/04/09 09:34:38;;;;;;;8.27;7.57;;;;;;;9.06;51.71;100242.09;5017711;28;20203;-79
2021/04/09 09:37:10;;;;;;;9.70;8.13;;;;;;;9.24;53.08;100247.91;5004010;28;20441;-77
2021/04/09 09:39:39;;;;;;;8.57;7.77;;;;;;;9.36;52.65;100245.09;5006170;28;20241;-76
2021/04/09 09:42:10;;;;;;;8.37;7.50;;;;;;;9.38;51.68;100239.84;5004543;28;20214;-76
2021/04/09 09:44:43;;;;;;;8.57;7.87;;;;;;;9.38;50.66;100245.91;5005212;28;20298;-77
2021/04/09 09:47:27;;;;;;;8.30;7.53;;;;;;;9.46;51.11;100237.97;5003679;28;20498;-76
2021/04/09 09:50:19;;;;;;;8.63;8.00;;;;;;;9.57;51.58;100232.56;5004916;28;20211;-77
2021/04/09 09:52:48;;;;;;;7.97;7.27;;;;;;;9.71;51.62;100222.72;5006824;28;20238;-77
2021/04/09 09:55:19;;;;;;;7.60;6.77;;;;;;;9.80;51.41;100219.09;5006057;28;20206;-78
2021/04/09 09:57:50;;;;;;;9.20;8.10;;;;;;;9.72;50.16;100225.31;5010432;28;20274;-79
2021/04/09 10:00:26;;;;;;;8.83;8.13;;;;;;;9.60;51.32;100240.34;5008951;28;20203;-79
2021/04/09 10:03:09;;;;;;;8.63;7.83;;;;;;;9.69;51.87;100237.53;5008075;28;20210;-79
2021/04/09 10:05:36;;;;;;;9.33;8.37;;;;;;;9.53;51.01;100227.41;5010788;28;20763;-78
2021/04/09 10:08:02;;;;;;;8.50;7.80;;;;;;;9.57;50.89;100230.81;5008687;28;20218;-77
2021/04/09 10:10:37;;;;;;;8.10;7.47;;;;;;;9.71;51.93;100233.16;5008471;28;20289;-78
2021/04/09 10:13:14;;;;;;;8.27;7.47;;;;;;;9.88;52.87;100228.50;5010780;28;20199;-78
2021/04/09 10:15:40;;;;;;;7.23;6.10;;;;;;;9.75;50.90;100234.81;5030357;28;20826;-78
2021/04/09 10:18:06;;;;;;;5.90;4.93;;;;;;;9.62;51.04;100212.50;5029650;28;20234;-79
2021/04/09 10:20:32;;;;;;;5.47;4.97;;;;;;;9.74;51.86;100214.88;5026430;28;20210;-81
2021/04/09 10:22:58;;;;;;;5.50;4.60;;;;;;;9.95;50.79;100216.22;5014717;28;20658;-80
2021/04/09 10:25:27;;;;;;;5.07;4.57;;;;;;;10.15;51.13;100210.59;5008789;28;20275;-80
2021/04/09 10:27:53;;;;;;;4.90;4.40;;;;;;;10.08;48.39;100216.81;5007197;28;20482;-77
2021/04/09 10:30:26;;;;;;;5.23;4.57;;;;;;;10.09;49.17;100219.38;5007387;28;20587;-78
2021/04/09 10:32:52;;;;;;;6.37;4.90;;;;;;;9.97;49.64;100222.25;5005445;28;20203;-78
2021/04/09 10:35:21;;;;;;;5.13;4.60;;;;;;;9.91;49.31;100222.34;5006233;28;20222;-79
2021/04/09 10:37:47;;;;;;;6.27;5.17;;;;;;;10.06;50.10;100211.63;5008185;28;20234;-78
2021/04/09 10:40:13;;;;;;;5.07;4.30;;;;;;;10.10;48.74;100208.06;5007827;28;20211;-78
2021/04/09 10:42:39;;;;;;;4.17;3.67;;;;;;;10.18;49.46;100202.69;5006362;28;20556;-78
2021/04/09 10:45:17;;;;;;;4.63;4.27;;;;;;;10.27;50.74;100212.94;5008792;28;20237;-78
2021/04/09 10:47:45;;;;;;;6.13;4.10;;;;;;;10.26;49.38;100211.19;5004520;28;20234;-78
2021/04/09 10:50:12;;;;;;;5.33;4.83;;;;;;;10.50;50.74;100208.97;5007233;28;20230;-78
2021/04/09 10:52:38;;;;;;;5.13;4.53;;;;;;;10.61;49.27;100204.38;5009427;28;20678;-79
2021/04/09 10:55:05;;;;;;;4.20;3.80;;;;;;;10.58;48.43;100195.75;5009034;28;20233;-77
2021/04/09 10:57:35;;;;;;;5.07;4.57;;;;;;;10.83;49.44;100201.28;5008974;28;20468;-78
2021/04/09 11:00:02;;;;;;;5.87;5.30;;;;;;;10.97;48.60;100198.34;5007038;28;20598;-78
2021/04/09 11:02:28;;;;;;;5.37;4.40;;;;;;;10.82;48.50;100202.16;5008649;28;20758;-77
2021/04/09 11:04:57;;;;;;;4.50;4.10;;;;;;;10.61;49.55;100193.09;5008630;28;20253;-78
2021/04/09 11:07:41;;;;;;;5.33;4.93;;;;;;;10.70;49.74;100208.53;5007611;28;20228;-79
2021/04/09 11:10:09;;;;;;;5.30;4.80;;;;;;;10.65;49.72;100200.81;5009195;28;20241;-78
2021/04/09 11:12:34;;;;;;;4.33;4.00;;;;;;;10.53;49.18;100196.72;5006398;28;20207;-77
2021/04/09 11:15:07;;;;;;;4.17;3.80;;;;;;;10.55;49.12;100203.69;5009241;28;20213;-79
2021/04/09 11:17:34;;;;;;;4.07;3.77;;;;;;;10.53;47.89;100188.91;5010426;28;20365;-80
2021/04/09 11:20:04;;;;;;;4.50;3.47;;;;;;;10.50;49.36;100175.06;5010539;28;20261;-79
2021/04/09 11:22:30;;;;;;;4.10;3.70;;;;;;;10.57;47.75;100179.25;5006306;28;20908;-79
2021/04/09 11:24:59;;;;;;;3.80;3.50;;;;;;;10.78;47.00;100183.09;5003786;28;20206;-78
2021/04/09 11:27:27;;;;;;;4.03;3.73;;;;;;;10.95;47.90;100179.22;5005332;28;20226;-79
2021/04/09 11:30:14;;;;;;;3.70;3.40;;;;;;;11.19;45.68;100169.91;5006244;28;20330;-80
2021/04/09 11:32:42;;;;;;;2.93;2.50;;;;;;;11.22;44.23;100173.31;5006399;28;20207;-79
2021/04/09 11:35:11;;;;;;;3.47;2.83;;;;;;;11.70;46.28;100159.81;5005071;28;20277;-79
2021/04/09 11:37:49;;;;;;;3.43;3.13;;;;;;;12.03;44.04;100169.38;5006185;28;20273;-79